WMT4407 LIMC-LEMD
Flight info
| Callsign | WMT4407 |
|---|---|
| Flight time | N/A |
| Altitude | 35000 |
| Route | NEDED DCT GEKBA DCT VAMTU DCT KOLON DCT GANGU DCT PADKO DCT DIVKO DCT NILDU DCT NENDA N975 ADUXO |
| Aircraft | A21N/M-SDE2E3FGHIRWXY/LB1 |
Departure
| Time | 2026-04-30 14:47 |
|---|---|
| Airport | Milan Malpensa International Airport (LIMC) |
Arrival
| Time | N/A |
|---|---|
| Airport | Adolfo Suárez Madrid–Barajas Airport (LEMD) |
| Time | Latitude | Longitude | Altitude | Speed | Heading |
|---|---|---|---|---|---|
| 2026-04-30 14:06 | 45.62210 | 8.71718 | 753 ft | 0 kts | 169° |
| 2026-04-30 14:32 | 45.62237 | 8.71709 | 753 ft | 4 kts | 165° |
| 2026-04-30 14:32 | 45.62263 | 8.71698 | 754 ft | 4 kts | 158° |
| 2026-04-30 14:32 | 45.62287 | 8.71681 | 753 ft | 4 kts | 142° |
| 2026-04-30 14:33 | 45.62302 | 8.71655 | 753 ft | 4 kts | 94° |
| 2026-04-30 14:33 | 45.62301 | 8.71640 | 753 ft | 0 kts | 78° |
| 2026-04-30 14:36 | 45.62304 | 8.71671 | 753 ft | 5 kts | 80° |
| 2026-04-30 14:36 | 45.62314 | 8.71745 | 755 ft | 9 kts | 78° |
| 2026-04-30 14:36 | 45.62328 | 8.71844 | 756 ft | 11 kts | 79° |
| 2026-04-30 14:37 | 45.62344 | 8.71962 | 757 ft | 13 kts | 79° |
| 2026-04-30 14:37 | 45.62362 | 8.72098 | 758 ft | 15 kts | 79° |
| 2026-04-30 14:37 | 45.62363 | 8.72206 | 756 ft | 11 kts | 133° |
| 2026-04-30 14:37 | 45.62285 | 8.72242 | 755 ft | 13 kts | 168° |
| 2026-04-30 14:38 | 45.62184 | 8.72270 | 753 ft | 16 kts | 169° |
| 2026-04-30 14:38 | 45.62069 | 8.72302 | 755 ft | 18 kts | 169° |
| 2026-04-30 14:38 | 45.61944 | 8.72337 | 755 ft | 19 kts | 168° |
| 2026-04-30 14:38 | 45.61809 | 8.72374 | 756 ft | 20 kts | 169° |
| 2026-04-30 14:39 | 45.61665 | 8.72414 | 756 ft | 22 kts | 169° |
| 2026-04-30 14:39 | 45.61511 | 8.72456 | 753 ft | 23 kts | 169° |
| 2026-04-30 14:39 | 45.61349 | 8.72501 | 756 ft | 24 kts | 169° |
| 2026-04-30 14:40 | 45.61101 | 8.72570 | 757 ft | 10 kts | 167° |
| 2026-04-30 14:40 | 45.61078 | 8.72603 | 756 ft | 0 kts | 100° |
| 2026-04-30 14:42 | 45.61078 | 8.72605 | 756 ft | 1 kts | 100° |
| 2026-04-30 14:42 | 45.61075 | 8.72639 | 755 ft | 6 kts | 88° |
| 2026-04-30 14:42 | 45.61080 | 8.72683 | 754 ft | 7 kts | 78° |
| 2026-04-30 14:42 | 45.61090 | 8.72762 | 753 ft | 9 kts | 79° |
| 2026-04-30 14:43 | 45.61105 | 8.72875 | 754 ft | 14 kts | 79° |
| 2026-04-30 14:43 | 45.61130 | 8.73028 | 754 ft | 17 kts | 62° |
| 2026-04-30 14:43 | 45.61227 | 8.73139 | 758 ft | 19 kts | 34° |
| 2026-04-30 14:43 | 45.61338 | 8.73245 | 756 ft | 16 kts | 33° |
| 2026-04-30 14:44 | 45.61427 | 8.73260 | 755 ft | 14 kts | 348° |
| 2026-04-30 14:44 | 45.61530 | 8.73231 | 755 ft | 15 kts | 349° |
| 2026-04-30 14:44 | 45.61612 | 8.73235 | 757 ft | 13 kts | 59° |
| 2026-04-30 14:44 | 45.61628 | 8.73361 | 758 ft | 10 kts | 80° |
| 2026-04-30 14:45 | 45.61618 | 8.73466 | 757 ft | 12 kts | 128° |
| 2026-04-30 14:45 | 45.61586 | 8.73564 | 754 ft | 10 kts | 100° |
| 2026-04-30 14:45 | 45.61591 | 8.73668 | 748 ft | 11 kts | 77° |
| 2026-04-30 14:45 | 45.61638 | 8.73733 | 750 ft | 10 kts | 345° |
| 2026-04-30 14:46 | 45.61716 | 8.73710 | 747 ft | 18 kts | 348° |
| 2026-04-30 14:46 | 45.62100 | 8.73603 | 748 ft | 96 kts | 349° |
| 2026-04-30 14:46 | 45.62980 | 8.73361 | 747 ft | 157 kts | 349° |
| 2026-04-30 14:46 | 45.64155 | 8.73044 | 1046 ft | 177 kts | 350° |
| 2026-04-30 14:47 | 45.65368 | 8.72786 | 1798 ft | 177 kts | 0° |
| 2026-04-30 14:47 | 45.66602 | 8.72846 | 2525 ft | 178 kts | 359° |
| 2026-04-30 14:47 | 45.67846 | 8.72778 | 3271 ft | 178 kts | 358° |
| 2026-04-30 14:47 | 45.69123 | 8.72706 | 3898 ft | 192 kts | 359° |
| 2026-04-30 14:48 | 45.70503 | 8.72637 | 4489 ft | 205 kts | 358° |
| 2026-04-30 14:48 | 45.71971 | 8.72481 | 5086 ft | 218 kts | 350° |
| 2026-04-30 14:48 | 45.73386 | 8.71493 | 5493 ft | 241 kts | 318° |
| 2026-04-30 14:48 | 45.74369 | 8.69587 | 6386 ft | 239 kts | 292° |
| 2026-04-30 14:49 | 45.74589 | 8.67231 | 7225 ft | 243 kts | 266° |
| 2026-04-30 14:49 | 45.74018 | 8.64933 | 7952 ft | 251 kts | 236° |
| 2026-04-30 14:49 | 45.72862 | 8.63052 | 8769 ft | 256 kts | 217° |
| 2026-04-30 14:49 | 45.71253 | 8.61920 | 9524 ft | 261 kts | 199° |
| 2026-04-30 14:50 | 45.67682 | 8.60307 | 10669 ft | 287 kts | 198° |
| 2026-04-30 14:50 | 45.65707 | 8.59398 | 10952 ft | 310 kts | 199° |
| 2026-04-30 14:51 | 45.61337 | 8.57337 | 11628 ft | 348 kts | 199° |
| 2026-04-30 14:51 | 45.59014 | 8.56230 | 12264 ft | 355 kts | 199° |
| 2026-04-30 14:51 | 45.54303 | 8.53787 | 13725 ft | 365 kts | 205° |
| 2026-04-30 14:52 | 45.51991 | 8.52227 | 14420 ft | 370 kts | 207° |
| 2026-04-30 14:52 | 45.47297 | 8.49027 | 15794 ft | 378 kts | 206° |
| 2026-04-30 14:52 | 45.44907 | 8.47421 | 16491 ft | 381 kts | 206° |
| 2026-04-30 14:53 | 45.40057 | 8.44185 | 17874 ft | 389 kts | 206° |
| 2026-04-30 14:53 | 45.37594 | 8.42541 | 18558 ft | 392 kts | 206° |
| 2026-04-30 14:54 | 45.32603 | 8.39211 | 19713 ft | 400 kts | 205° |
| 2026-04-30 14:54 | 45.27507 | 8.35831 | 20831 ft | 408 kts | 205° |
| 2026-04-30 14:55 | 45.22326 | 8.32394 | 21964 ft | 414 kts | 205° |
| 2026-04-30 14:55 | 45.19704 | 8.30661 | 22522 ft | 418 kts | 205° |
| 2026-04-30 14:55 | 45.14395 | 8.27148 | 23590 ft | 425 kts | 205° |
| 2026-04-30 14:56 | 45.09028 | 8.23607 | 24503 ft | 431 kts | 205° |
| 2026-04-30 14:56 | 45.03539 | 8.19998 | 25472 ft | 434 kts | 206° |
| 2026-04-30 14:57 | 45.00835 | 8.18229 | 25923 ft | 435 kts | 206° |
| 2026-04-30 14:57 | 44.95310 | 8.14613 | 26793 ft | 440 kts | 206° |
| 2026-04-30 14:58 | 44.89728 | 8.10961 | 27646 ft | 444 kts | 207° |
| 2026-04-30 14:58 | 44.86924 | 8.09128 | 28081 ft | 445 kts | 208° |
| 2026-04-30 14:58 | 44.81273 | 8.05446 | 28882 ft | 449 kts | 208° |
| 2026-04-30 14:59 | 44.75575 | 8.01737 | 29656 ft | 454 kts | 209° |
| 2026-04-30 15:00 | 44.66936 | 7.96126 | 30771 ft | 456 kts | 209° |
| 2026-04-30 15:00 | 44.61212 | 7.92426 | 31649 ft | 450 kts | 209° |
| 2026-04-30 15:01 | 44.55542 | 7.88770 | 32438 ft | 447 kts | 209° |
| 2026-04-30 15:01 | 44.52721 | 7.86950 | 32785 ft | 445 kts | 209° |
| 2026-04-30 15:01 | 44.47114 | 7.83327 | 33458 ft | 443 kts | 209° |
| 2026-04-30 15:02 | 44.44316 | 7.81528 | 33795 ft | 442 kts | 209° |
| 2026-04-30 15:02 | 44.41522 | 7.79736 | 34119 ft | 441 kts | 209° |
| 2026-04-30 15:03 | 44.33202 | 7.74409 | 34812 ft | 440 kts | 208° |
| 2026-04-30 15:03 | 44.27629 | 7.70847 | 35198 ft | 441 kts | 208° |
| 2026-04-30 15:04 | 44.22047 | 7.67288 | 35315 ft | 440 kts | 208° |
| 2026-04-30 15:04 | 44.13976 | 7.61367 | 35251 ft | 432 kts | 224° |